Terminal Aerodrome Forecast
Issued by NWS

Home | Current Version | Previous Version | Text Only | Print | Product List | Glossary On
Versions: 1 2 3 4 5 6 7 8 9 10 11 12 13 14 15 16
581
FTUS45 KTFX 231733
TAFLWT
TAF
KLWT 231733Z 2318/2418 07007KT 5SM BR VCSH OVC015
     FM240900 14006KT 4SM BR OVC050
     FM241200 VRB04KT 3SM BR OVC025=

USA.gov is the U.S. government's official web portal to all federal, state and local government web resources and services.